sensor_id;sensor_type;location;lat;lon;timestamp;temperature;humidity
62154;DHT22;48140;45.486;9.226;2023-09-12T00:00:44;25.20;92.00
62154;DHT22;48140;45.486;9.226;2023-09-12T00:03:10;25.20;92.40
62154;DHT22;48140;45.486;9.226;2023-09-12T00:05:36;25.20;92.90
62154;DHT22;48140;45.486;9.226;2023-09-12T00:08:02;25.20;93.00
62154;DHT22;48140;45.486;9.226;2023-09-12T00:10:29;25.20;92.70
62154;DHT22;48140;45.486;9.226;2023-09-12T00:12:57;25.30;92.70
62154;DHT22;48140;45.486;9.226;2023-09-12T00:15:27;25.30;92.60
62154;DHT22;48140;45.486;9.226;2023-09-12T00:17:53;25.30;92.30
62154;DHT22;48140;45.486;9.226;2023-09-12T00:20:19;25.30;92.30
62154;DHT22;48140;45.486;9.226;2023-09-12T00:22:45;25.30;92.30
62154;DHT22;48140;45.486;9.226;2023-09-12T00:25:11;25.30;92.30
62154;DHT22;48140;45.486;9.226;2023-09-12T00:27:36;25.30;92.10
62154;DHT22;48140;45.486;9.226;2023-09-12T00:30:02;25.20;92.80
62154;DHT22;48140;45.486;9.226;2023-09-12T00:32:28;25.10;93.40
62154;DHT22;48140;45.486;9.226;2023-09-12T00:34:53;25.00;94.00
62154;DHT22;48140;45.486;9.226;2023-09-12T00:37:19;25.00;94.30
62154;DHT22;48140;45.486;9.226;2023-09-12T00:39:45;25.00;94.90
62154;DHT22;48140;45.486;9.226;2023-09-12T00:42:12;25.00;95.40
62154;DHT22;48140;45.486;9.226;2023-09-12T00:44:38;24.90;96.00
62154;DHT22;48140;45.486;9.226;2023-09-12T00:47:03;24.90;96.80
62154;DHT22;48140;45.486;9.226;2023-09-12T00:49:32;24.90;97.50
62154;DHT22;48140;45.486;9.226;2023-09-12T00:51:58;24.80;98.90
62154;DHT22;48140;45.486;9.226;2023-09-12T00:54:27;24.70;99.60
62154;DHT22;48140;45.486;9.226;2023-09-12T00:56:52;24.80;99.90
62154;DHT22;48140;45.486;9.226;2023-09-12T00:59:18;24.70;99.90
62154;DHT22;48140;45.486;9.226;2023-09-12T01:01:44;24.60;99.90
62154;DHT22;48140;45.486;9.226;2023-09-12T01:04:10;24.60;99.90
62154;DHT22;48140;45.486;9.226;2023-09-12T01:06:36;24.60;99.90
62154;DHT22;48140;45.486;9.226;2023-09-12T01:09:02;24.60;99.90
62154;DHT22;48140;45.486;9.226;2023-09-12T01:11:28;24.60;99.90
62154;DHT22;48140;45.486;9.226;2023-09-12T01:13:54;24.60;99.90
62154;DHT22;48140;45.486;9.226;2023-09-12T01:16:19;24.60;99.90
62154;DHT22;48140;45.486;9.226;2023-09-12T01:18:45;24.70;99.90
62154;DHT22;48140;45.486;9.226;2023-09-12T01:24:12;24.70;99.90
62154;DHT22;48140;45.486;9.226;2023-09-12T01:26:42;24.90;99.90
62154;DHT22;48140;45.486;9.226;2023-09-12T01:29:13;24.70;99.90
62154;DHT22;48140;45.486;9.226;2023-09-12T01:31:40;24.80;99.90
62154;DHT22;48140;45.486;9.226;2023-09-12T01:34:10;24.70;99.90
62154;DHT22;48140;45.486;9.226;2023-09-12T01:36:36;24.70;99.90
62154;DHT22;48140;45.486;9.226;2023-09-12T01:39:01;24.70;99.90
62154;DHT22;48140;45.486;9.226;2023-09-12T01:41:27;24.60;99.90
62154;DHT22;48140;45.486;9.226;2023-09-12T01:43:54;24.60;99.90
62154;DHT22;48140;45.486;9.226;2023-09-12T01:46:20;24.60;99.90
62154;DHT22;48140;45.486;9.226;2023-09-12T01:48:46;24.60;99.90
62154;DHT22;48140;45.486;9.226;2023-09-12T01:51:16;24.50;99.90
62154;DHT22;48140;45.486;9.226;2023-09-12T01:53:43;24.50;99.90
62154;DHT22;48140;45.486;9.226;2023-09-12T01:56:10;24.40;99.90
62154;DHT22;48140;45.486;9.226;2023-09-12T01:58:39;24.30;99.90
62154;DHT22;48140;45.486;9.226;2023-09-12T02:01:05;24.20;99.90
62154;DHT22;48140;45.486;9.226;2023-09-12T02:03:34;24.20;99.90
62154;DHT22;48140;45.486;9.226;2023-09-12T02:06:09;24.10;99.90
62154;DHT22;48140;45.486;9.226;2023-09-12T02:08:34;24.10;99.90
62154;DHT22;48140;45.486;9.226;2023-09-12T02:11:00;24.00;99.90
62154;DHT22;48140;45.486;9.226;2023-09-12T02:13:26;24.10;99.90
62154;DHT22;48140;45.486;9.226;2023-09-12T02:16:01;24.00;99.90
62154;DHT22;48140;45.486;9.226;2023-09-12T02:18:37;24.00;99.90
62154;DHT22;48140;45.486;9.226;2023-09-12T02:21:03;24.00;99.90
62154;DHT22;48140;45.486;9.226;2023-09-12T02:23:28;24.00;99.90
62154;DHT22;48140;45.486;9.226;2023-09-12T02:25:54;23.90;99.90
62154;DHT22;48140;45.486;9.226;2023-09-12T02:28:21;24.00;99.90
62154;DHT22;48140;45.486;9.226;2023-09-12T02:30:46;24.00;99.90
62154;DHT22;48140;45.486;9.226;2023-09-12T02:33:12;23.80;99.90
62154;DHT22;48140;45.486;9.226;2023-09-12T02:35:38;23.80;99.90
62154;DHT22;48140;45.486;9.226;2023-09-12T02:38:03;23.90;99.90
62154;DHT22;48140;45.486;9.226;2023-09-12T02:40:29;23.80;99.90
62154;DHT22;48140;45.486;9.226;2023-09-12T02:42:54;23.80;99.90
62154;DHT22;48140;45.486;9.226;2023-09-12T02:45:20;23.80;99.90
62154;DHT22;48140;45.486;9.226;2023-09-12T02:47:45;23.70;99.90
62154;DHT22;48140;45.486;9.226;2023-09-12T02:50:11;23.70;99.90
62154;DHT22;48140;45.486;9.226;2023-09-12T02:52:37;23.60;99.90
62154;DHT22;48140;45.486;9.226;2023-09-12T02:55:02;23.70;99.90
62154;DHT22;48140;45.486;9.226;2023-09-12T02:57:28;23.60;99.90
62154;DHT22;48140;45.486;9.226;2023-09-12T02:59:53;23.60;99.90
62154;DHT22;48140;45.486;9.226;2023-09-12T03:02:19;23.60;99.90
62154;DHT22;48140;45.486;9.226;2023-09-12T03:04:44;23.60;99.90
62154;DHT22;48140;45.486;9.226;2023-09-12T03:07:10;23.60;99.90
62154;DHT22;48140;45.486;9.226;2023-09-12T03:09:35;23.60;99.90
62154;DHT22;48140;45.486;9.226;2023-09-12T03:12:04;23.50;99.90
62154;DHT22;48140;45.486;9.226;2023-09-12T03:14:29;23.50;99.90
62154;DHT22;48140;45.486;9.226;2023-09-12T03:16:55;23.50;99.90
62154;DHT22;48140;45.486;9.226;2023-09-12T03:19:21;23.40;99.90
62154;DHT22;48140;45.486;9.226;2023-09-12T03:21:47;23.50;99.90
62154;DHT22;48140;45.486;9.226;2023-09-12T03:24:12;23.50;99.90
62154;DHT22;48140;45.486;9.226;2023-09-12T03:26:38;23.40;99.90
62154;DHT22;48140;45.486;9.226;2023-09-12T03:29:04;23.40;99.90
62154;DHT22;48140;45.486;9.226;2023-09-12T03:31:29;23.30;99.90
62154;DHT22;48140;45.486;9.226;2023-09-12T03:33:55;23.20;99.90
62154;DHT22;48140;45.486;9.226;2023-09-12T03:36:21;23.20;99.90
62154;DHT22;48140;45.486;9.226;2023-09-12T03:38:46;23.20;99.90
62154;DHT22;48140;45.486;9.226;2023-09-12T03:41:12;23.20;99.90
62154;DHT22;48140;45.486;9.226;2023-09-12T03:43:38;23.20;99.90
62154;DHT22;48140;45.486;9.226;2023-09-12T03:46:03;23.20;99.90
62154;DHT22;48140;45.486;9.226;2023-09-12T03:48:32;23.10;99.90
62154;DHT22;48140;45.486;9.226;2023-09-12T03:50:57;23.10;99.90
62154;DHT22;48140;45.486;9.226;2023-09-12T03:53:23;23.10;99.90
62154;DHT22;48140;45.486;9.226;2023-09-12T03:55:48;23.20;99.90
62154;DHT22;48140;45.486;9.226;2023-09-12T03:58:14;23.30;99.90
62154;DHT22;48140;45.486;9.226;2023-09-12T04:00:40;23.30;99.90
62154;DHT22;48140;45.486;9.226;2023-09-12T04:03:05;23.30;99.90
62154;DHT22;48140;45.486;9.226;2023-09-12T04:05:31;23.20;99.90
62154;DHT22;48140;45.486;9.226;2023-09-12T04:07:56;23.20;99.90
62154;DHT22;48140;45.486;9.226;2023-09-12T04:10:22;23.20;99.90
62154;DHT22;48140;45.486;9.226;2023-09-12T04:12:48;23.10;99.90
62154;DHT22;48140;45.486;9.226;2023-09-12T04:15:13;23.00;99.90
62154;DHT22;48140;45.486;9.226;2023-09-12T04:17:39;23.10;99.90
62154;DHT22;48140;45.486;9.226;2023-09-12T04:20:05;23.10;99.90
62154;DHT22;48140;45.486;9.226;2023-09-12T04:22:30;23.10;99.90
62154;DHT22;48140;45.486;9.226;2023-09-12T04:24:56;23.00;99.90
62154;DHT22;48140;45.486;9.226;2023-09-12T04:27:22;22.90;99.90
62154;DHT22;48140;45.486;9.226;2023-09-12T04:29:47;23.00;99.90
62154;DHT22;48140;45.486;9.226;2023-09-12T04:32:13;23.00;99.90
62154;DHT22;48140;45.486;9.226;2023-09-12T04:34:42;23.00;99.90
62154;DHT22;48140;45.486;9.226;2023-09-12T04:37:07;22.90;99.90
62154;DHT22;48140;45.486;9.226;2023-09-12T04:39:33;23.00;99.90
62154;DHT22;48140;45.486;9.226;2023-09-12T04:41:59;22.90;99.90
62154;DHT22;48140;45.486;9.226;2023-09-12T04:44:34;22.90;99.90
62154;DHT22;48140;45.486;9.226;2023-09-12T04:47:00;22.90;99.90
62154;DHT22;48140;45.486;9.226;2023-09-12T04:49:25;22.80;99.90
62154;DHT22;48140;45.486;9.226;2023-09-12T04:51:51;22.80;99.90
62154;DHT22;48140;45.486;9.226;2023-09-12T04:54:16;22.70;99.90
62154;DHT22;48140;45.486;9.226;2023-09-12T04:56:42;22.70;99.90
62154;DHT22;48140;45.486;9.226;2023-09-12T04:59:08;22.70;99.90
62154;DHT22;48140;45.486;9.226;2023-09-12T05:01:33;22.70;99.90
62154;DHT22;48140;45.486;9.226;2023-09-12T05:03:59;22.60;99.90
62154;DHT22;48140;45.486;9.226;2023-09-12T05:06:24;22.60;99.90
62154;DHT22;48140;45.486;9.226;2023-09-12T05:08:50;22.60;99.90
62154;DHT22;48140;45.486;9.226;2023-09-12T05:11:15;22.70;99.90
62154;DHT22;48140;45.486;9.226;2023-09-12T05:13:41;22.80;99.90
62154;DHT22;48140;45.486;9.226;2023-09-12T05:16:06;22.80;99.90
62154;DHT22;48140;45.486;9.226;2023-09-12T05:18:32;22.90;99.90
62154;DHT22;48140;45.486;9.226;2023-09-12T05:20:57;22.90;99.90
62154;DHT22;48140;45.486;9.226;2023-09-12T05:23:23;23.10;99.90
62154;DHT22;48140;45.486;9.226;2023-09-12T05:25:48;23.30;99.90
62154;DHT22;48140;45.486;9.226;2023-09-12T05:30:51;23.50;99.90
62154;DHT22;48140;45.486;9.226;2023-09-12T05:33:16;23.50;99.90
62154;DHT22;48140;45.486;9.226;2023-09-12T05:35:42;23.50;99.90
62154;DHT22;48140;45.486;9.226;2023-09-12T05:38:09;23.50;99.90
62154;DHT22;48140;45.486;9.226;2023-09-12T05:40:35;23.60;99.90
62154;DHT22;48140;45.486;9.226;2023-09-12T05:43:00;23.50;99.90
62154;DHT22;48140;45.486;9.226;2023-09-12T05:45:26;23.50;99.90
62154;DHT22;48140;45.486;9.226;2023-09-12T05:47:52;23.60;99.90
62154;DHT22;48140;45.486;9.226;2023-09-12T05:50:17;23.60;99.90
62154;DHT22;48140;45.486;9.226;2023-09-12T05:52:43;23.70;99.90
62154;DHT22;48140;45.486;9.226;2023-09-12T05:55:10;23.90;99.90
62154;DHT22;48140;45.486;9.226;2023-09-12T05:57:35;23.90;99.90
62154;DHT22;48140;45.486;9.226;2023-09-12T06:00:01;23.90;99.90
62154;DHT22;48140;45.486;9.226;2023-09-12T06:02:27;23.90;99.90
62154;DHT22;48140;45.486;9.226;2023-09-12T06:04:52;23.80;99.90
62154;DHT22;48140;45.486;9.226;2023-09-12T06:07:18;23.70;99.90
62154;DHT22;48140;45.486;9.226;2023-09-12T06:09:43;23.60;99.90
62154;DHT22;48140;45.486;9.226;2023-09-12T06:12:08;23.70;99.90
62154;DHT22;48140;45.486;9.226;2023-09-12T06:14:34;23.70;99.90
62154;DHT22;48140;45.486;9.226;2023-09-12T06:16:59;23.50;99.90
62154;DHT22;48140;45.486;9.226;2023-09-12T06:19:25;23.60;99.90
62154;DHT22;48140;45.486;9.226;2023-09-12T06:21:50;23.60;99.90
62154;DHT22;48140;45.486;9.226;2023-09-12T06:24:17;23.70;99.90
62154;DHT22;48140;45.486;9.226;2023-09-12T06:26:42;23.90;99.90
62154;DHT22;48140;45.486;9.226;2023-09-12T06:29:10;24.00;99.90
62154;DHT22;48140;45.486;9.226;2023-09-12T06:31:35;24.00;99.90
62154;DHT22;48140;45.486;9.226;2023-09-12T06:34:01;24.20;99.90
62154;DHT22;48140;45.486;9.226;2023-09-12T06:36:27;24.50;99.90
62154;DHT22;48140;45.486;9.226;2023-09-12T06:38:55;24.70;99.90
62154;DHT22;48140;45.486;9.226;2023-09-12T06:41:20;24.80;99.90
62154;DHT22;48140;45.486;9.226;2023-09-12T06:43:46;24.90;99.90
62154;DHT22;48140;45.486;9.226;2023-09-12T06:46:12;25.00;99.90
62154;DHT22;48140;45.486;9.226;2023-09-12T06:48:37;24.90;99.90
62154;DHT22;48140;45.486;9.226;2023-09-12T06:51:08;24.80;99.90
62154;DHT22;48140;45.486;9.226;2023-09-12T06:53:34;24.80;99.90
62154;DHT22;48140;45.486;9.226;2023-09-12T06:55:59;24.70;99.90
62154;DHT22;48140;45.486;9.226;2023-09-12T06:58:25;24.70;99.90
62154;DHT22;48140;45.486;9.226;2023-09-12T07:00:51;24.60;99.90
62154;DHT22;48140;45.486;9.226;2023-09-12T07:03:16;24.50;99.90
62154;DHT22;48140;45.486;9.226;2023-09-12T07:05:42;24.50;99.90
62154;DHT22;48140;45.486;9.226;2023-09-12T07:08:08;24.50;99.90
62154;DHT22;48140;45.486;9.226;2023-09-12T07:10:34;24.50;99.90
62154;DHT22;48140;45.486;9.226;2023-09-12T07:12:59;24.70;99.90
62154;DHT22;48140;45.486;9.226;2023-09-12T07:15:25;24.70;99.90
62154;DHT22;48140;45.486;9.226;2023-09-12T07:17:51;24.70;99.90
62154;DHT22;48140;45.486;9.226;2023-09-12T07:20:17;24.70;99.90
62154;DHT22;48140;45.486;9.226;2023-09-12T07:22:45;24.90;99.90
62154;DHT22;48140;45.486;9.226;2023-09-12T07:25:11;24.90;99.90
62154;DHT22;48140;45.486;9.226;2023-09-12T07:27:37;25.10;99.90
62154;DHT22;48140;45.486;9.226;2023-09-12T07:30:04;25.20;99.90
62154;DHT22;48140;45.486;9.226;2023-09-12T07:32:29;25.40;99.80
62154;DHT22;48140;45.486;9.226;2023-09-12T07:34:55;25.40;99.90
62154;DHT22;48140;45.486;9.226;2023-09-12T07:37:21;25.50;99.40
62154;DHT22;48140;45.486;9.226;2023-09-12T07:39:46;25.40;99.60
62154;DHT22;48140;45.486;9.226;2023-09-12T07:42:12;25.60;99.10
62154;DHT22;48140;45.486;9.226;2023-09-12T07:44:37;26.10;97.90
62154;DHT22;48140;45.486;9.226;2023-09-12T07:47:03;26.40;96.00
62154;DHT22;48140;45.486;9.226;2023-09-12T07:49:29;26.50;94.60
62154;DHT22;48140;45.486;9.226;2023-09-12T07:51:54;26.60;93.60
62154;DHT22;48140;45.486;9.226;2023-09-12T07:54:22;26.50;93.80
62154;DHT22;48140;45.486;9.226;2023-09-12T07:56:48;26.60;93.20
62154;DHT22;48140;45.486;9.226;2023-09-12T07:59:13;26.40;93.30
62154;DHT22;48140;45.486;9.226;2023-09-12T08:01:40;26.10;93.50
62154;DHT22;48140;45.486;9.226;2023-09-12T08:04:05;26.30;93.90
62154;DHT22;48140;45.486;9.226;2023-09-12T08:06:32;26.30;93.50
62154;DHT22;48140;45.486;9.226;2023-09-12T08:08:57;26.70;92.70
62154;DHT22;48140;45.486;9.226;2023-09-12T08:11:23;27.00;91.20
62154;DHT22;48140;45.486;9.226;2023-09-12T08:13:49;27.00;90.50
62154;DHT22;48140;45.486;9.226;2023-09-12T08:16:15;27.00;90.20
62154;DHT22;48140;45.486;9.226;2023-09-12T08:18:40;27.10;88.50
62154;DHT22;48140;45.486;9.226;2023-09-12T08:21:06;27.20;88.10
62154;DHT22;48140;45.486;9.226;2023-09-12T08:23:31;27.30;86.80
62154;DHT22;48140;45.486;9.226;2023-09-12T08:25:57;27.70;85.90
62154;DHT22;48140;45.486;9.226;2023-09-12T08:28:22;27.60;86.20
62154;DHT22;48140;45.486;9.226;2023-09-12T08:30:48;27.90;85.00
62154;DHT22;48140;45.486;9.226;2023-09-12T08:33:14;27.60;85.90
62154;DHT22;48140;45.486;9.226;2023-09-12T08:35:39;27.80;86.20
62154;DHT22;48140;45.486;9.226;2023-09-12T08:38:05;27.70;85.80
62154;DHT22;48140;45.486;9.226;2023-09-12T08:40:32;27.70;86.00
62154;DHT22;48140;45.486;9.226;2023-09-12T08:43:00;28.20;83.40
62154;DHT22;48140;45.486;9.226;2023-09-12T08:45:26;28.20;81.00
62154;DHT22;48140;45.486;9.226;2023-09-12T08:47:53;28.10;81.00
62154;DHT22;48140;45.486;9.226;2023-09-12T08:50:18;28.00;79.20
62154;DHT22;48140;45.486;9.226;2023-09-12T08:52:46;28.20;80.00
62154;DHT22;48140;45.486;9.226;2023-09-12T08:55:12;28.60;78.20
62154;DHT22;48140;45.486;9.226;2023-09-12T08:57:40;28.80;75.70
62154;DHT22;48140;45.486;9.226;2023-09-12T09:00:09;28.90;74.90
62154;DHT22;48140;45.486;9.226;2023-09-12T09:02:38;28.20;75.30
62154;DHT22;48140;45.486;9.226;2023-09-12T09:05:04;28.20;76.30
62154;DHT22;48140;45.486;9.226;2023-09-12T09:07:34;28.40;76.00
62154;DHT22;48140;45.486;9.226;2023-09-12T09:10:03;28.70;75.10
62154;DHT22;48140;45.486;9.226;2023-09-12T09:12:33;28.90;72.10
62154;DHT22;48140;45.486;9.226;2023-09-12T09:14:59;28.60;71.20
62154;DHT22;48140;45.486;9.226;2023-09-12T09:17:44;28.50;71.30
62154;DHT22;48140;45.486;9.226;2023-09-12T09:20:10;28.50;72.10
62154;DHT22;48140;45.486;9.226;2023-09-12T09:22:36;28.40;71.00
62154;DHT22;48140;45.486;9.226;2023-09-12T09:25:11;28.60;71.80
62154;DHT22;48140;45.486;9.226;2023-09-12T09:27:40;28.70;71.50
62154;DHT22;48140;45.486;9.226;2023-09-12T09:30:05;29.00;71.20
62154;DHT22;48140;45.486;9.226;2023-09-12T09:32:31;29.70;69.10
62154;DHT22;48140;45.486;9.226;2023-09-12T09:34:57;29.90;67.50
62154;DHT22;48140;45.486;9.226;2023-09-12T09:37:22;29.90;67.40
62154;DHT22;48140;45.486;9.226;2023-09-12T09:39:48;30.10;63.90
62154;DHT22;48140;45.486;9.226;2023-09-12T09:42:17;30.10;63.30
62154;DHT22;48140;45.486;9.226;2023-09-12T09:44:43;30.10;62.40
62154;DHT22;48140;45.486;9.226;2023-09-12T09:47:08;30.40;60.70
62154;DHT22;48140;45.486;9.226;2023-09-12T09:49:34;30.80;59.70
62154;DHT22;48140;45.486;9.226;2023-09-12T09:51:59;30.70;57.80
62154;DHT22;48140;45.486;9.226;2023-09-12T09:54:28;30.70;56.90
62154;DHT22;48140;45.486;9.226;2023-09-12T09:56:55;31.10;56.90
62154;DHT22;48140;45.486;9.226;2023-09-12T09:59:22;31.00;54.80
62154;DHT22;48140;45.486;9.226;2023-09-12T10:01:49;30.70;53.40
62154;DHT22;48140;45.486;9.226;2023-09-12T10:04:14;30.10;54.00
62154;DHT22;48140;45.486;9.226;2023-09-12T10:06:42;30.40;53.50
62154;DHT22;48140;45.486;9.226;2023-09-12T10:09:12;30.70;52.20
62154;DHT22;48140;45.486;9.226;2023-09-12T10:11:39;30.80;49.90
62154;DHT22;48140;45.486;9.226;2023-09-12T10:14:05;30.80;50.20
62154;DHT22;48140;45.486;9.226;2023-09-12T10:16:32;30.70;49.70
62154;DHT22;48140;45.486;9.226;2023-09-12T10:19:15;30.70;50.40
62154;DHT22;48140;45.486;9.226;2023-09-12T10:21:45;30.90;50.90
62154;DHT22;48140;45.486;9.226;2023-09-12T10:24:12;30.90;51.20
62154;DHT22;48140;45.486;9.226;2023-09-12T10:26:37;31.00;51.10
62154;DHT22;48140;45.486;9.226;2023-09-12T10:29:08;31.30;50.70
62154;DHT22;48140;45.486;9.226;2023-09-12T10:31:33;30.90;50.90
62154;DHT22;48140;45.486;9.226;2023-09-12T10:33:59;31.10;51.00
62154;DHT22;48140;45.486;9.226;2023-09-12T10:36:26;30.80;50.60
62154;DHT22;48140;45.486;9.226;2023-09-12T10:38:52;30.90;51.20
62154;DHT22;48140;45.486;9.226;2023-09-12T10:41:18;31.00;51.20
62154;DHT22;48140;45.486;9.226;2023-09-12T10:43:44;30.80;51.10
62154;DHT22;48140;45.486;9.226;2023-09-12T10:46:15;30.80;51.10
62154;DHT22;48140;45.486;9.226;2023-09-12T10:48:41;31.00;50.90
62154;DHT22;48140;45.486;9.226;2023-09-12T10:51:07;31.00;49.80
62154;DHT22;48140;45.486;9.226;2023-09-12T10:53:33;31.70;49.00
62154;DHT22;48140;45.486;9.226;2023-09-12T10:55:59;31.10;49.00
62154;DHT22;48140;45.486;9.226;2023-09-12T10:58:25;30.80;49.90
62154;DHT22;48140;45.486;9.226;2023-09-12T11:01:37;31.10;49.10
62154;DHT22;48140;45.486;9.226;2023-09-12T11:03:38;31.70;49.30
62154;DHT22;48140;45.486;9.226;2023-09-12T11:06:04;32.40;47.10
62154;DHT22;48140;45.486;9.226;2023-09-12T11:08:35;32.10;47.20
62154;DHT22;48140;45.486;9.226;2023-09-12T11:11:19;32.30;46.80
62154;DHT22;48140;45.486;9.226;2023-09-12T11:13:46;32.70;46.00
62154;DHT22;48140;45.486;9.226;2023-09-12T11:16:12;32.50;45.90
62154;DHT22;48140;45.486;9.226;2023-09-12T11:19:12;32.70;46.10
62154;DHT22;48140;45.486;9.226;2023-09-12T11:21:34;32.50;46.50
62154;DHT22;48140;45.486;9.226;2023-09-12T11:23:59;31.50;46.80
62154;DHT22;48140;45.486;9.226;2023-09-12T11:26:25;31.20;48.00
62154;DHT22;48140;45.486;9.226;2023-09-12T11:28:50;31.50;48.30
62154;DHT22;48140;45.486;9.226;2023-09-12T11:31:28;32.00;47.30
62154;DHT22;48140;45.486;9.226;2023-09-12T11:33:54;31.90;46.50
62154;DHT22;48140;45.486;9.226;2023-09-12T11:36:19;32.30;45.80
62154;DHT22;48140;45.486;9.226;2023-09-12T11:38:49;32.30;44.90
62154;DHT22;48140;45.486;9.226;2023-09-12T11:41:14;32.60;44.30
62154;DHT22;48140;45.486;9.226;2023-09-12T11:44:02;32.10;44.80
62154;DHT22;48140;45.486;9.226;2023-09-12T11:46:28;31.50;44.90
62154;DHT22;48140;45.486;9.226;2023-09-12T11:48:54;31.10;44.50
62154;DHT22;48140;45.486;9.226;2023-09-12T11:51:21;31.20;45.20
62154;DHT22;48140;45.486;9.226;2023-09-12T11:53:52;30.60;46.10
62154;DHT22;48140;45.486;9.226;2023-09-12T11:56:18;30.60;45.90
62154;DHT22;48140;45.486;9.226;2023-09-12T11:58:44;31.40;45.70
62154;DHT22;48140;45.486;9.226;2023-09-12T12:01:11;31.80;45.40
62154;DHT22;48140;45.486;9.226;2023-09-12T12:03:37;32.80;44.30
62154;DHT22;48140;45.486;9.226;2023-09-12T12:06:03;33.10;43.60
62154;DHT22;48140;45.486;9.226;2023-09-12T12:08:30;33.10;43.40
62154;DHT22;48140;45.486;9.226;2023-09-12T12:10:56;33.20;42.20
62154;DHT22;48140;45.486;9.226;2023-09-12T12:13:24;33.30;41.70
62154;DHT22;48140;45.486;9.226;2023-09-12T12:15:50;33.10;41.00
62154;DHT22;48140;45.486;9.226;2023-09-12T12:18:16;32.90;42.10
62154;DHT22;48140;45.486;9.226;2023-09-12T12:20:41;32.80;43.10
62154;DHT22;48140;45.486;9.226;2023-09-12T12:23:07;33.00;40.70
62154;DHT22;48140;45.486;9.226;2023-09-12T12:25:33;33.00;40.60
62154;DHT22;48140;45.486;9.226;2023-09-12T12:27:59;33.30;39.10
62154;DHT22;48140;45.486;9.226;2023-09-12T12:30:25;33.00;39.40
62154;DHT22;48140;45.486;9.226;2023-09-12T12:32:50;33.40;40.00
62154;DHT22;48140;45.486;9.226;2023-09-12T12:35:17;33.00;38.70
62154;DHT22;48140;45.486;9.226;2023-09-12T12:37:43;33.00;38.60
62154;DHT22;48140;45.486;9.226;2023-09-12T12:40:11;32.60;38.00
62154;DHT22;48140;45.486;9.226;2023-09-12T12:42:38;32.70;38.50
62154;DHT22;48140;45.486;9.226;2023-09-12T12:45:14;32.20;38.40
62154;DHT22;48140;45.486;9.226;2023-09-12T12:47:40;32.80;39.30
62154;DHT22;48140;45.486;9.226;2023-09-12T12:50:12;32.60;38.30
62154;DHT22;48140;45.486;9.226;2023-09-12T12:52:38;32.70;38.60
62154;DHT22;48140;45.486;9.226;2023-09-12T12:55:05;32.90;37.90
62154;DHT22;48140;45.486;9.226;2023-09-12T12:57:30;32.50;38.80
62154;DHT22;48140;45.486;9.226;2023-09-12T12:59:56;32.80;38.40
62154;DHT22;48140;45.486;9.226;2023-09-12T13:02:22;33.40;37.80
62154;DHT22;48140;45.486;9.226;2023-09-12T13:04:48;33.60;37.20
62154;DHT22;48140;45.486;9.226;2023-09-12T13:07:13;33.60;37.40
62154;DHT22;48140;45.486;9.226;2023-09-12T13:09:39;33.60;37.60
62154;DHT22;48140;45.486;9.226;2023-09-12T13:12:05;33.30;37.30
62154;DHT22;48140;45.486;9.226;2023-09-12T13:14:31;32.20;39.10
62154;DHT22;48140;45.486;9.226;2023-09-12T13:16:59;32.00;39.60
62154;DHT22;48140;45.486;9.226;2023-09-12T13:19:25;31.60;40.50
62154;DHT22;48140;45.486;9.226;2023-09-12T13:21:51;32.00;40.00
62154;DHT22;48140;45.486;9.226;2023-09-12T13:24:17;32.10;40.00
62154;DHT22;48140;45.486;9.226;2023-09-12T13:26:42;33.10;38.90
62154;DHT22;48140;45.486;9.226;2023-09-12T13:29:08;33.10;38.20
62154;DHT22;48140;45.486;9.226;2023-09-12T13:31:34;33.10;39.00
62154;DHT22;48140;45.486;9.226;2023-09-12T13:33:59;33.80;37.90
62154;DHT22;48140;45.486;9.226;2023-09-12T13:36:25;33.60;38.40
62154;DHT22;48140;45.486;9.226;2023-09-12T13:38:50;33.90;37.20
62154;DHT22;48140;45.486;9.226;2023-09-12T13:41:17;33.50;37.90
62154;DHT22;48140;45.486;9.226;2023-09-12T13:43:42;33.30;38.50
62154;DHT22;48140;45.486;9.226;2023-09-12T13:46:10;33.80;37.00
62154;DHT22;48140;45.486;9.226;2023-09-12T13:48:36;34.10;37.40
62154;DHT22;48140;45.486;9.226;2023-09-12T13:51:01;33.90;37.60
62154;DHT22;48140;45.486;9.226;2023-09-12T13:53:28;33.70;38.00
62154;DHT22;48140;45.486;9.226;2023-09-12T13:55:53;34.30;37.10
62154;DHT22;48140;45.486;9.226;2023-09-12T13:58:19;34.20;38.60
62154;DHT22;48140;45.486;9.226;2023-09-12T14:00:44;34.60;37.10
62154;DHT22;48140;45.486;9.226;2023-09-12T14:03:10;35.00;36.10
62154;DHT22;48140;45.486;9.226;2023-09-12T14:05:35;34.80;35.30
62154;DHT22;48140;45.486;9.226;2023-09-12T14:08:01;34.70;36.60
62154;DHT22;48140;45.486;9.226;2023-09-12T14:10:26;35.10;35.90
62154;DHT22;48140;45.486;9.226;2023-09-12T14:12:52;35.10;35.20
62154;DHT22;48140;45.486;9.226;2023-09-12T14:15:17;34.60;35.50
62154;DHT22;48140;45.486;9.226;2023-09-12T14:17:43;34.40;35.70
62154;DHT22;48140;45.486;9.226;2023-09-12T14:20:09;34.30;36.20
62154;DHT22;48140;45.486;9.226;2023-09-12T14:22:36;34.20;36.40
62154;DHT22;48140;45.486;9.226;2023-09-12T14:25:05;34.10;36.50
62154;DHT22;48140;45.486;9.226;2023-09-12T14:27:30;34.10;36.60
62154;DHT22;48140;45.486;9.226;2023-09-12T14:29:56;33.70;37.40
62154;DHT22;48140;45.486;9.226;2023-09-12T14:32:21;33.50;37.90
62154;DHT22;48140;45.486;9.226;2023-09-12T14:34:47;32.90;39.00
62154;DHT22;48140;45.486;9.226;2023-09-12T14:37:13;33.80;38.40
62154;DHT22;48140;45.486;9.226;2023-09-12T14:39:39;34.40;37.50
62154;DHT22;48140;45.486;9.226;2023-09-12T14:42:04;34.70;36.60
62154;DHT22;48140;45.486;9.226;2023-09-12T14:44:34;34.60;36.00
62154;DHT22;48140;45.486;9.226;2023-09-12T14:46:59;34.10;36.60
62154;DHT22;48140;45.486;9.226;2023-09-12T14:49:25;34.50;36.80
62154;DHT22;48140;45.486;9.226;2023-09-12T14:51:51;34.50;35.90
62154;DHT22;48140;45.486;9.226;2023-09-12T14:54:16;34.30;36.10
62154;DHT22;48140;45.486;9.226;2023-09-12T14:56:42;34.50;36.10
62154;DHT22;48140;45.486;9.226;2023-09-12T14:59:07;35.00;35.50
62154;DHT22;48140;45.486;9.226;2023-09-12T15:01:34;35.00;35.80
62154;DHT22;48140;45.486;9.226;2023-09-12T15:04:00;34.10;35.40
62154;DHT22;48140;45.486;9.226;2023-09-12T15:06:27;34.60;35.80
62154;DHT22;48140;45.486;9.226;2023-09-12T15:08:52;34.90;35.90
62154;DHT22;48140;45.486;9.226;2023-09-12T15:11:18;34.90;35.30
62154;DHT22;48140;45.486;9.226;2023-09-12T15:13:44;35.30;35.20
62154;DHT22;48140;45.486;9.226;2023-09-12T15:16:11;35.50;34.70
62154;DHT22;48140;45.486;9.226;2023-09-12T15:18:37;35.50;34.70
62154;DHT22;48140;45.486;9.226;2023-09-12T15:21:05;35.20;35.00
62154;DHT22;48140;45.486;9.226;2023-09-12T15:23:31;34.00;36.40
62154;DHT22;48140;45.486;9.226;2023-09-12T15:25:56;34.70;36.40
62154;DHT22;48140;45.486;9.226;2023-09-12T15:28:22;34.90;35.80
62154;DHT22;48140;45.486;9.226;2023-09-12T15:30:47;35.10;35.70